createdAt,value
2023-01-09T00:01:21.973Z,96484.84
2023-01-09T00:03:48.693Z,96479.28
2023-01-09T00:06:15.368Z,96483.47
2023-01-09T00:08:42.469Z,96470.78
2023-01-09T00:11:09.165Z,96471.91
2023-01-09T00:13:36.205Z,96477.50
2023-01-09T00:16:05.003Z,96479.88
2023-01-09T00:18:31.682Z,96467.84
2023-01-09T00:21:04.081Z,96464.84
2023-01-09T00:23:31.111Z,96461.81
2023-01-09T00:26:18.680Z,96464.78
2023-01-09T00:28:46.456Z,96458.13
2023-01-09T00:31:13.736Z,96461.13
2023-01-09T00:33:54.165Z,96442.53
2023-01-09T00:36:21.010Z,96433.66
2023-01-09T00:38:47.633Z,96441.44
2023-01-09T00:41:18.409Z,96441.31
2023-01-09T00:43:49.173Z,96438.22
2023-01-09T00:46:18.603Z,96443.88
2023-01-09T00:48:47.350Z,96430.09
2023-01-09T00:51:14.927Z,96454.03
2023-01-09T00:53:43.465Z,96452.88
2023-01-09T00:56:15.344Z,96452.09
2023-01-09T00:58:42.364Z,96434.25
2023-01-09T01:01:09.133Z,96448.88
2023-01-09T01:03:35.901Z,96460.31
2023-01-09T01:06:02.484Z,96454.38
2023-01-09T01:08:29.965Z,96456.63
2023-01-09T01:10:56.651Z,96464.69
2023-01-09T01:13:23.433Z,96413.94
2023-01-09T01:15:50.035Z,96450.97
2023-01-09T01:18:16.756Z,96454.00
2023-01-09T01:20:45.146Z,96459.66
2023-01-09T01:23:12.400Z,96451.78
2023-01-09T01:25:41.349Z,96437.28
2023-01-09T01:28:08.678Z,96439.28
2023-01-09T01:30:40.819Z,96447.38
2023-01-09T01:33:08.755Z,96437.25
2023-01-09T01:35:35.696Z,96436.41
2023-01-09T01:38:02.759Z,96421.88
2023-01-09T01:40:30.023Z,96433.16
2023-01-09T01:42:56.848Z,96425.97
2023-01-09T01:45:29.060Z,96419.38
2023-01-09T01:48:12.780Z,96415.66
2023-01-09T01:51:03.863Z,96413.34
2023-01-09T01:53:35.554Z,96411.38
2023-01-09T01:56:08.328Z,96404.50
2023-01-09T01:58:40.412Z,96400.72
2023-01-09T02:01:07.816Z,96402.97
2023-01-09T02:03:36.562Z,96403.53
2023-01-09T02:06:04.289Z,96400.63
2023-01-09T02:08:32.105Z,96395.63
2023-01-09T02:10:58.954Z,96402.91
2023-01-09T02:13:26.647Z,96392.91
2023-01-09T02:16:06.609Z,96394.97
2023-01-09T02:18:57.869Z,96387.94
2023-01-09T02:21:27.248Z,96393.81
2023-01-09T02:24:08.753Z,96353.75
2023-01-09T02:27:07.559Z,96369.75
2023-01-09T02:30:04.781Z,96376.16
2023-01-09T02:32:54.549Z,96370.28
2023-01-09T02:35:30.084Z,96361.16
2023-01-09T02:38:05.678Z,96354.16
2023-01-09T02:40:39.444Z,96356.63
2023-01-09T02:43:08.293Z,96344.16
2023-01-09T02:45:34.931Z,96351.13
2023-01-09T02:48:01.728Z,96356.66
2023-01-09T02:50:39.611Z,96359.84
2023-01-09T02:53:17.888Z,96345.00
2023-01-09T02:56:00.417Z,96346.47
2023-01-09T02:58:48.544Z,96348.47
2023-01-09T03:01:41.832Z,96347.78
2023-01-09T03:04:16.631Z,96317.09
2023-01-09T03:07:01.570Z,96345.22
2023-01-09T03:09:33.177Z,96333.88
2023-01-09T03:12:13.928Z,96318.88
2023-01-09T03:14:55.576Z,96297.38
2023-01-09T03:17:38.337Z,96331.34
2023-01-09T03:20:09.029Z,96331.72
2023-01-09T03:22:35.898Z,96313.59
2023-01-09T03:25:02.580Z,96318.84
2023-01-09T03:27:29.318Z,96319.19
2023-01-09T03:29:55.918Z,96325.19
2023-01-09T03:32:22.584Z,96277.50
2023-01-09T03:34:49.335Z,96314.84
2023-01-09T03:37:16.074Z,96289.19
2023-01-09T03:39:42.663Z,96295.50
2023-01-09T03:42:09.443Z,96301.47
2023-01-09T03:44:36.033Z,96302.34
2023-01-09T03:47:02.693Z,96296.19
2023-01-09T03:49:29.330Z,96306.00
2023-01-09T03:51:56.098Z,96294.75
2023-01-09T03:54:22.759Z,96296.22
2023-01-09T03:56:49.521Z,96291.25
2023-01-09T03:59:16.115Z,96284.28
2023-01-09T04:01:42.828Z,96274.00
2023-01-09T04:04:09.603Z,96278.09
2023-01-09T04:06:36.352Z,96301.63
2023-01-09T04:09:03.048Z,96300.69
2023-01-09T04:11:29.730Z,96306.91
2023-01-09T04:13:56.301Z,96299.56
2023-01-09T04:16:23.044Z,96290.63
2023-01-09T04:18:49.699Z,96290.75
2023-01-09T04:21:16.346Z,96302.56
2023-01-09T04:23:42.961Z,96299.75
2023-01-09T04:26:09.948Z,96280.03
2023-01-09T04:28:36.707Z,96293.72
2023-01-09T04:31:03.369Z,96295.50
2023-01-09T04:33:29.986Z,96306.75
2023-01-09T04:35:56.757Z,96298.41
2023-01-09T04:38:23.348Z,96310.63
2023-01-09T04:40:50.152Z,96292.88
2023-01-09T04:43:16.741Z,96330.41
2023-01-09T04:45:43.443Z,96315.50
2023-01-09T04:48:10.438Z,96298.53
2023-01-09T04:50:37.087Z,96327.59
2023-01-09T04:53:04.004Z,96328.72
2023-01-09T04:55:30.747Z,96339.44
2023-01-09T04:57:57.349Z,96354.06
2023-01-09T05:00:24.342Z,96365.88
2023-01-09T05:02:51.094Z,96327.88
2023-01-09T05:05:17.863Z,96372.91
2023-01-09T05:07:44.456Z,96350.25
2023-01-09T05:10:12.006Z,96372.78
2023-01-09T05:12:39.890Z,96367.41
2023-01-09T05:15:08.038Z,96377.22
2023-01-09T05:17:34.881Z,96378.59
2023-01-09T05:20:01.547Z,96381.81
2023-01-09T05:22:28.251Z,96379.28
2023-01-09T05:24:55.298Z,96381.13
2023-01-09T05:27:21.969Z,96397.41
2023-01-09T05:29:48.579Z,96375.41
2023-01-09T05:32:15.233Z,96400.25
2023-01-09T05:34:41.996Z,96407.94
2023-01-09T05:37:08.637Z,96402.59
2023-01-09T05:39:35.427Z,96408.22
2023-01-09T05:42:02.021Z,96404.97
2023-01-09T05:44:28.728Z,96420.72
2023-01-09T05:46:55.799Z,96416.06
2023-01-09T05:49:22.419Z,96436.13
2023-01-09T05:51:49.085Z,96439.75
2023-01-09T05:54:15.911Z,96452.81
2023-01-09T05:56:42.539Z,96456.06
2023-01-09T05:59:09.365Z,96462.31
2023-01-09T06:01:36.236Z,96421.72
2023-01-09T06:04:02.957Z,96459.53
2023-01-09T06:06:29.570Z,96467.00
2023-01-09T06:08:56.446Z,96478.69
2023-01-09T06:11:23.037Z,96479.06
2023-01-09T06:13:49.742Z,96480.50
2023-01-09T06:16:16.495Z,96480.78
2023-01-09T06:18:43.160Z,96492.44
2023-01-09T06:21:09.759Z,96469.13
2023-01-09T06:23:36.507Z,96489.63
2023-01-09T06:26:03.280Z,96502.50
2023-01-09T06:28:29.942Z,96490.44
2023-01-09T06:30:56.591Z,96507.13
2023-01-09T06:33:23.276Z,96498.69
2023-01-09T06:35:49.858Z,96512.97
2023-01-09T06:38:16.622Z,96529.72
2023-01-09T06:40:43.221Z,96526.06
2023-01-09T06:43:09.896Z,96533.47
2023-01-09T06:45:36.870Z,96543.16
2023-01-09T06:48:03.716Z,96552.88
2023-01-09T06:50:30.311Z,96547.63
2023-01-09T06:52:57.039Z,96553.25
2023-01-09T06:55:23.619Z,96548.38
2023-01-09T06:57:50.468Z,96566.53
2023-01-09T07:00:17.882Z,96559.28
2023-01-09T07:02:44.544Z,96552.84
2023-01-09T07:05:11.164Z,96570.53
2023-01-09T07:07:39.007Z,96563.09
2023-01-09T07:10:06.444Z,96564.50
2023-01-09T07:12:33.175Z,96523.03
2023-01-09T07:14:59.810Z,96560.09
2023-01-09T07:17:26.674Z,96566.94
2023-01-09T07:19:53.288Z,96576.63
2023-01-09T07:22:20.287Z,96579.41
2023-01-09T07:24:47.020Z,96585.84
2023-01-09T07:27:13.704Z,96587.03
2023-01-09T07:29:40.320Z,96596.94
2023-01-09T07:32:07.011Z,96606.00
2023-01-09T07:34:33.912Z,96602.56
2023-01-09T07:37:00.812Z,96590.09
2023-01-09T07:39:27.518Z,96594.09
2023-01-09T07:41:54.277Z,96599.34
2023-01-09T07:44:21.003Z,96607.00
2023-01-09T07:46:47.686Z,96609.63
2023-01-09T07:49:14.267Z,96621.91
2023-01-09T07:51:41.106Z,96611.72
2023-01-09T07:54:07.693Z,96625.84
2023-01-09T07:56:34.360Z,96632.59
2023-01-09T07:59:01.348Z,96636.59
2023-01-09T08:01:28.211Z,96629.56
2023-01-09T08:03:54.880Z,96647.28
2023-01-09T08:06:21.887Z,96648.13
2023-01-09T08:08:48.615Z,96647.75
2023-01-09T08:11:15.744Z,96668.72
2023-01-09T08:13:42.509Z,96630.22
2023-01-09T08:16:09.276Z,96652.41
2023-01-09T08:18:36.072Z,96639.34
2023-01-09T08:21:03.468Z,96656.53
2023-01-09T08:23:30.105Z,96654.66
2023-01-09T08:25:56.843Z,96659.53
2023-01-09T08:28:23.508Z,96652.53
2023-01-09T08:30:50.334Z,96661.19
2023-01-09T08:33:16.932Z,96665.38
2023-01-09T08:35:44.847Z,96670.81
2023-01-09T08:38:11.674Z,96617.19
2023-01-09T08:40:38.648Z,96623.50
2023-01-09T08:43:05.307Z,96679.56
2023-01-09T08:45:32.493Z,96670.22
2023-01-09T08:47:59.273Z,96685.13
2023-01-09T08:50:25.973Z,96668.03
2023-01-09T08:52:52.554Z,96679.66
2023-01-09T08:55:19.159Z,96679.50
2023-01-09T08:57:53.327Z,96671.66
2023-01-09T09:00:23.103Z,96679.31
2023-01-09T09:03:00.694Z,96675.66
2023-01-09T09:05:29.462Z,96675.66
2023-01-09T09:07:56.644Z,96683.56
2023-01-09T09:10:26.979Z,96671.25
2023-01-09T09:12:55.824Z,96664.78
2023-01-09T09:15:23.182Z,96678.50
2023-01-09T09:17:55.200Z,96677.50
2023-01-09T09:20:24.371Z,96658.94
2023-01-09T09:22:51.478Z,96651.09
2023-01-09T09:25:19.096Z,96685.31
2023-01-09T09:27:45.966Z,96690.59
2023-01-09T09:30:14.729Z,96694.44
2023-01-09T09:32:41.889Z,96691.03
2023-01-09T09:35:09.074Z,96688.59
2023-01-09T09:37:36.022Z,96693.00
2023-01-09T09:40:17.633Z,96704.34
2023-01-09T09:42:51.021Z,96711.56
2023-01-09T09:45:41.861Z,96701.66
2023-01-09T09:48:20.313Z,96677.50
2023-01-09T09:51:14.859Z,96706.13
2023-01-09T09:53:59.419Z,96710.75
2023-01-09T09:56:28.977Z,96687.16
2023-01-09T09:59:07.830Z,96660.97
2023-01-09T10:01:41.969Z,96703.50
2023-01-09T10:04:15.263Z,96708.34
2023-01-09T10:06:49.674Z,96702.66
2023-01-09T10:09:25.721Z,96698.66
2023-01-09T10:12:01.687Z,96702.09
2023-01-09T10:14:28.702Z,96690.59
2023-01-09T10:17:15.865Z,96699.09
2023-01-09T10:19:51.669Z,96704.50
2023-01-09T10:22:32.094Z,96713.59
2023-01-09T10:25:15.128Z,96719.84
2023-01-09T10:28:28.309Z,96725.66
2023-01-09T10:31:09.678Z,96725.47
2023-01-09T10:34:02.729Z,96724.25
2023-01-09T10:37:00.037Z,96724.84
2023-01-09T10:39:57.385Z,96726.22
2023-01-09T10:42:50.793Z,96733.31
2023-01-09T10:45:30.164Z,96729.69
2023-01-09T10:48:06.262Z,96731.69
2023-01-09T10:50:40.319Z,96730.47
2023-01-09T10:53:40.369Z,96733.50
2023-01-09T10:56:23.145Z,96728.88
2023-01-09T10:58:51.571Z,96711.72
2023-01-09T11:01:38.738Z,96718.34
2023-01-09T11:04:34.670Z,96734.88
2023-01-09T11:07:32.929Z,96719.16
2023-01-09T11:10:07.142Z,96726.03
2023-01-09T11:12:35.555Z,96721.44
2023-01-09T11:15:17.412Z,96728.28
2023-01-09T11:17:45.316Z,96690.19
2023-01-09T11:20:28.040Z,96729.28
2023-01-09T11:22:57.443Z,96745.38
2023-01-09T11:25:27.409Z,96733.72
2023-01-09T11:28:03.209Z,96734.75
2023-01-09T11:30:31.879Z,96714.38
2023-01-09T11:32:59.062Z,96708.34
2023-01-09T11:35:34.633Z,96724.66
2023-01-09T11:38:15.120Z,96722.84
2023-01-09T11:40:54.913Z,96726.69
2023-01-09T11:43:35.347Z,96721.06
2023-01-09T11:46:05.085Z,96717.63
2023-01-09T11:48:31.635Z,96721.66
2023-01-09T11:51:00.401Z,96709.97
2023-01-09T11:53:28.158Z,96714.19
2023-01-09T11:56:00.845Z,96714.16
2023-01-09T11:58:32.335Z,96693.97
2023-01-09T12:01:15.109Z,96705.06
2023-01-09T12:04:03.162Z,96700.91
2023-01-09T12:07:13.991Z,96709.94
2023-01-09T12:09:55.447Z,96696.25
2023-01-09T12:12:49.273Z,96706.53
2023-01-09T12:15:29.528Z,96647.50
2023-01-09T12:18:33.083Z,96703.50
2023-01-09T12:20:59.743Z,96704.34
2023-01-09T12:23:55.148Z,96726.88
2023-01-09T12:26:32.300Z,96719.63
2023-01-09T12:29:29.731Z,96721.22
2023-01-09T12:31:56.392Z,96709.47
2023-01-09T12:34:37.850Z,96708.06
2023-01-09T12:37:45.051Z,96713.72
2023-01-09T12:40:11.696Z,96716.19
2023-01-09T12:42:56.443Z,96689.78
2023-01-09T12:45:33.185Z,96718.22
2023-01-09T12:48:08.332Z,96728.88
2023-01-09T12:50:44.100Z,96734.13
2023-01-09T12:53:35.639Z,96734.91
2023-01-09T12:56:05.457Z,96730.88
2023-01-09T12:58:44.500Z,96730.06
2023-01-09T13:01:17.418Z,96713.72
2023-01-09T13:04:08.603Z,96727.28
2023-01-09T13:06:40.403Z,96718.00
2023-01-09T13:09:33.020Z,96722.81
2023-01-09T13:12:04.442Z,96720.41
2023-01-09T13:14:49.108Z,96715.91
2023-01-09T13:17:24.927Z,96719.13
2023-01-09T13:19:56.484Z,96711.91
2023-01-09T13:22:27.356Z,96708.84
2023-01-09T13:25:03.172Z,96715.09
2023-01-09T13:27:35.132Z,96719.28
2023-01-09T13:30:11.184Z,96724.28
2023-01-09T13:32:50.152Z,96732.41
2023-01-09T13:35:16.900Z,96740.50
2023-01-09T13:37:51.069Z,96734.00
2023-01-09T13:40:20.600Z,96743.06
2023-01-09T13:42:57.827Z,96734.78
2023-01-09T13:45:28.174Z,96740.28
2023-01-09T13:48:26.259Z,96740.09
2023-01-09T13:50:53.206Z,96736.31
2023-01-09T13:53:19.808Z,96744.16
2023-01-09T13:55:58.986Z,96752.03
2023-01-09T13:58:38.080Z,96755.50
2023-01-09T14:01:24.838Z,96759.09
2023-01-09T14:04:09.804Z,96770.44
2023-01-09T14:06:36.982Z,96770.81
2023-01-09T14:09:22.534Z,96764.78
2023-01-09T14:12:03.312Z,96717.22
2023-01-09T14:14:32.757Z,96762.78
2023-01-09T14:17:00.480Z,96772.22
2023-01-09T14:19:39.719Z,96774.25
2023-01-09T14:22:08.128Z,96785.91
2023-01-09T14:24:44.930Z,96790.34
2023-01-09T14:27:49.233Z,96789.72
2023-01-09T14:30:27.918Z,96804.44
2023-01-09T14:33:19.220Z,96802.00
2023-01-09T14:35:52.316Z,96780.63
2023-01-09T14:38:32.027Z,96822.03
2023-01-09T14:41:26.894Z,96845.03
2023-01-09T14:44:13.397Z,96837.53
2023-01-09T14:46:40.445Z,96844.63
2023-01-09T14:49:30.307Z,96846.25
2023-01-09T14:52:00.590Z,96838.56
2023-01-09T14:54:37.452Z,96834.31
2023-01-09T14:57:23.492Z,96830.03
2023-01-09T15:00:17.293Z,96802.22
2023-01-09T15:02:46.966Z,96797.97
2023-01-09T15:05:21.409Z,96802.19
2023-01-09T15:08:04.439Z,96864.16
2023-01-09T15:10:38.152Z,96760.50
2023-01-09T15:13:08.237Z,96809.56
2023-01-09T15:15:35.649Z,96874.97
2023-01-09T15:18:08.338Z,96823.44
2023-01-09T15:20:35.273Z,96863.81
2023-01-09T15:23:02.120Z,96838.75
2023-01-09T15:25:38.802Z,96888.06
2023-01-09T15:28:31.368Z,96883.84
2023-01-09T15:31:03.153Z,96723.22
2023-01-09T15:33:31.262Z,96894.16
2023-01-09T15:35:58.430Z,96747.56
2023-01-09T15:38:26.443Z,96839.41
2023-01-09T15:41:23.811Z,96891.63
2023-01-09T15:43:50.668Z,96535.22
2023-01-09T15:46:17.497Z,96835.94
2023-01-09T15:48:44.440Z,96780.09
2023-01-09T15:51:15.687Z,96805.00
2023-01-09T15:53:45.413Z,96600.88
2023-01-09T15:56:12.033Z,96910.44
2023-01-09T15:58:44.421Z,96806.66
2023-01-09T16:01:30.973Z,96916.22
2023-01-09T16:04:06.768Z,96916.41
2023-01-09T16:06:50.040Z,96913.16
2023-01-09T16:09:25.973Z,96932.31
2023-01-09T16:11:56.707Z,96706.22
2023-01-09T16:14:41.281Z,96927.88
2023-01-09T16:17:15.560Z,96879.41
2023-01-09T16:19:56.751Z,96880.13
2023-01-09T16:22:42.043Z,96936.09
2023-01-09T16:25:29.395Z,96886.41
2023-01-09T16:28:09.561Z,96943.22
2023-01-09T16:30:36.654Z,96931.25
2023-01-09T16:33:03.496Z,96837.88
2023-01-09T16:35:30.454Z,96868.94
2023-01-09T16:37:57.317Z,96883.06
2023-01-09T16:40:26.371Z,96986.94
2023-01-09T16:42:59.088Z,96928.94
2023-01-09T16:45:29.644Z,96933.63
2023-01-09T16:47:56.615Z,96924.59
2023-01-09T16:50:23.955Z,96930.34
2023-01-09T16:52:51.305Z,96978.00
2023-01-09T16:55:18.359Z,96936.88
2023-01-09T16:57:45.283Z,96995.38
2023-01-09T17:00:20.279Z,97032.41
2023-01-09T17:02:47.128Z,97015.03
2023-01-09T17:05:13.927Z,97010.34
2023-01-09T17:07:40.705Z,97026.03
2023-01-09T17:10:18.709Z,97047.38
2023-01-09T17:12:45.409Z,97036.53
2023-01-09T17:15:12.018Z,96979.50
2023-01-09T17:17:38.868Z,96991.84
2023-01-09T17:20:19.640Z,97051.31
2023-01-09T17:22:46.374Z,96969.13
2023-01-09T17:25:16.481Z,97039.97
2023-01-09T17:27:43.239Z,96978.88
2023-01-09T17:30:18.874Z,97066.09
2023-01-09T17:32:46.534Z,97074.53
2023-01-09T17:35:13.803Z,96910.19
2023-01-09T17:37:41.210Z,96959.22
2023-01-09T17:40:19.950Z,97092.22
2023-01-09T17:42:46.648Z,97008.47
2023-01-09T17:45:13.661Z,97095.28
2023-01-09T17:47:40.496Z,97050.50
2023-01-09T17:50:16.213Z,97002.59
2023-01-09T17:52:43.003Z,97021.13
2023-01-09T17:55:09.789Z,96949.97
2023-01-09T17:57:37.581Z,97032.75
2023-01-09T18:00:06.036Z,97101.81
2023-01-09T18:02:33.518Z,97112.47
2023-01-09T18:05:00.162Z,97041.88
2023-01-09T18:07:26.867Z,97077.38
2023-01-09T18:09:53.498Z,97086.19
2023-01-09T18:12:20.275Z,97074.03
2023-01-09T18:14:47.971Z,97030.53
2023-01-09T18:17:14.758Z,97016.13
2023-01-09T18:19:41.473Z,97121.59
2023-01-09T18:22:09.112Z,97027.63
2023-01-09T18:24:36.868Z,97055.19
2023-01-09T18:27:04.482Z,96797.44
2023-01-09T18:29:31.221Z,96861.25
2023-01-09T18:31:57.983Z,97113.25
2023-01-09T18:34:24.864Z,97116.75
2023-01-09T18:36:52.000Z,96985.69
2023-01-09T18:39:18.623Z,97080.78
2023-01-09T18:41:45.420Z,96871.59
2023-01-09T18:44:12.269Z,97155.53
2023-01-09T18:46:39.607Z,97100.78
2023-01-09T18:49:06.429Z,97159.47
2023-01-09T18:51:34.978Z,97188.69
2023-01-09T18:54:01.625Z,96906.25
2023-01-09T18:56:28.511Z,97002.03
2023-01-09T18:58:59.086Z,97192.66
2023-01-09T19:01:30.120Z,97163.25
2023-01-09T19:03:58.713Z,97198.56
2023-01-09T19:06:26.534Z,97209.91
2023-01-09T19:08:53.348Z,97221.66
2023-01-09T19:11:20.086Z,97243.22
2023-01-09T19:13:47.039Z,97120.97
2023-01-09T19:16:13.753Z,97141.25
2023-01-09T19:18:42.668Z,97107.63
2023-01-09T19:21:18.958Z,97247.19
2023-01-09T19:23:50.368Z,97213.34
2023-01-09T19:26:24.155Z,96907.56
2023-01-09T19:28:51.614Z,96868.63
2023-01-09T19:31:18.643Z,97280.22
2023-01-09T19:33:48.223Z,97240.28
2023-01-09T19:36:15.241Z,97172.59
2023-01-09T19:38:42.223Z,97170.72
2023-01-09T19:41:11.546Z,96978.88
2023-01-09T19:43:40.547Z,97205.03
2023-01-09T19:46:14.177Z,97223.88
2023-01-09T19:48:41.293Z,97132.22
2023-01-09T19:51:11.234Z,97170.34
2023-01-09T19:53:38.844Z,97182.41
2023-01-09T19:56:16.565Z,97158.84
2023-01-09T19:58:50.719Z,97288.44
2023-01-09T20:01:21.156Z,97294.94
2023-01-09T20:03:48.579Z,97025.59
2023-01-09T20:06:17.646Z,97030.75
2023-01-09T20:08:48.505Z,97306.19
2023-01-09T20:11:16.055Z,97298.81
2023-01-09T20:13:43.520Z,97014.25
2023-01-09T20:16:16.173Z,97304.13
2023-01-09T20:18:43.250Z,97239.78
2023-01-09T20:21:12.294Z,97239.09
2023-01-09T20:23:39.456Z,97239.28
2023-01-09T20:26:06.040Z,97246.28
2023-01-09T20:28:32.952Z,97235.63
2023-01-09T20:31:00.836Z,97105.44
2023-01-09T20:33:27.653Z,96985.84
2023-01-09T20:35:54.328Z,97328.38
2023-01-09T20:38:20.990Z,97369.69
2023-01-09T20:40:47.597Z,97326.53
2023-01-09T20:43:14.502Z,97340.25
2023-01-09T20:45:41.436Z,97345.31
2023-01-09T20:48:08.327Z,97288.47
2023-01-09T20:50:35.183Z,97320.38
2023-01-09T20:53:03.384Z,97313.16
2023-01-09T20:55:33.370Z,97392.00
2023-01-09T20:58:00.037Z,97360.66
2023-01-09T21:00:26.657Z,97393.06
2023-01-09T21:02:54.179Z,97398.72
2023-01-09T21:05:20.926Z,97336.78
2023-01-09T21:07:47.944Z,97332.66
2023-01-09T21:10:14.531Z,97407.84
2023-01-09T21:12:41.171Z,97068.25
2023-01-09T21:15:09.147Z,97378.59
2023-01-09T21:17:38.664Z,97412.88
2023-01-09T21:20:08.191Z,97420.94
2023-01-09T21:22:36.148Z,97302.63
2023-01-09T21:25:04.786Z,97434.78
2023-01-09T21:27:32.068Z,97386.38
2023-01-09T21:29:58.702Z,97341.03
2023-01-09T21:32:25.482Z,97364.69
2023-01-09T21:34:52.188Z,97363.75
2023-01-09T21:37:18.970Z,97355.75
2023-01-09T21:39:45.613Z,97381.75
2023-01-09T21:42:12.551Z,97457.13
2023-01-09T21:44:39.316Z,97424.88
2023-01-09T21:47:06.027Z,97220.47
2023-01-09T21:49:32.704Z,97432.91
2023-01-09T21:51:59.394Z,97464.25
2023-01-09T21:54:26.121Z,97396.88
2023-01-09T21:56:53.505Z,97477.47
2023-01-09T21:59:20.103Z,97256.41
2023-01-09T22:01:51.111Z,97443.00
2023-01-09T22:04:20.625Z,97455.59
2023-01-09T22:06:47.325Z,97404.13
2023-01-09T22:09:14.867Z,97207.13
2023-01-09T22:11:42.585Z,97512.50
2023-01-09T22:14:14.267Z,97505.34
2023-01-09T22:16:42.299Z,97413.31
2023-01-09T22:19:09.288Z,97454.31
2023-01-09T22:21:35.984Z,97435.72
2023-01-09T22:24:02.630Z,97473.28
2023-01-09T22:26:29.950Z,97544.94
2023-01-09T22:28:56.897Z,97391.19
2023-01-09T22:31:24.692Z,97547.06
2023-01-09T22:33:56.463Z,97534.97
2023-01-09T22:36:24.352Z,97486.34
2023-01-09T22:38:54.248Z,97487.63
2023-01-09T22:41:21.808Z,97521.38
2023-01-09T22:43:48.555Z,97511.44
2023-01-09T22:46:15.275Z,97522.56
2023-01-09T22:48:41.993Z,97470.75
2023-01-09T22:51:14.325Z,97510.81
2023-01-09T22:53:41.581Z,97544.06
2023-01-09T22:56:12.696Z,97544.41
2023-01-09T22:58:39.836Z,97602.56
2023-01-09T23:01:06.829Z,97499.75
2023-01-09T23:03:33.530Z,97440.22
2023-01-09T23:06:11.477Z,97496.75
2023-01-09T23:08:38.954Z,97578.34
2023-01-09T23:11:08.504Z,97527.66
2023-01-09T23:13:35.554Z,97566.94
2023-01-09T23:16:02.334Z,97518.13
2023-01-09T23:18:29.072Z,97558.91
2023-01-09T23:20:58.613Z,97628.31
2023-01-09T23:23:26.891Z,97527.75
2023-01-09T23:25:56.112Z,97635.81
2023-01-09T23:28:24.356Z,97643.81
2023-01-09T23:30:51.049Z,97441.34
2023-01-09T23:33:17.735Z,97551.53
2023-01-09T23:35:44.421Z,97616.91
2023-01-09T23:38:11.542Z,97661.56
2023-01-09T23:40:39.527Z,97670.72
2023-01-09T23:43:06.215Z,97607.28
2023-01-09T23:45:33.833Z,97677.81
2023-01-09T23:48:00.611Z,97628.94
2023-01-09T23:50:27.222Z,97436.66
2023-01-09T23:52:54.043Z,97690.88
2023-01-09T23:55:20.734Z,97643.75
2023-01-09T23:57:47.491Z,97543.50
